Time;durP1;ratioP1;P1;durP2;ratioP2;P2;SDS_P1;SDS_P2;PMS_P1;PMS_P2;Temp;Humidity;BMP_temperature;BMP_pressure;BME280_temperature;BME280_humidity;BME280_pressure;Samples;Min_cycle;Max_cycle;Signal;HPM_P1;HPM_P2
2022/07/09 00:01:30;;;;;;;7.53;2.15;;;;;;;;;;5034268;28;20025;-66
2022/07/09 00:03:56;;;;;;;4.60;1.98;;;;;;;;;;5035607;28;20037;-65
2022/07/09 00:06:22;;;;;;;4.68;2.30;;;;;;;;;;5034393;28;20443;-63
2022/07/09 00:08:48;;;;;;;16.55;3.00;;;;;;;;;;5035396;28;20029;-65
2022/07/09 00:11:14;;;;;;;6.35;2.30;;;;;;;;;;5035541;28;20109;-64
2022/07/09 00:13:41;;;;;;;8.43;2.60;;;;;;;;;;5035462;28;20136;-65
2022/07/09 00:16:08;;;;;;;5.75;2.30;;;;;;;;;;5034052;28;20471;-65
2022/07/09 00:18:37;;;;;;;6.18;2.20;;;;;;;;;;5035249;28;20026;-66
2022/07/09 00:21:03;;;;;;;7.03;2.65;;;;;;;;;;5035299;28;20356;-66
2022/07/09 00:23:29;;;;;;;5.65;2.38;;;;;;;;;;5035122;28;20534;-65
2022/07/09 00:25:55;;;;;;;6.25;2.50;;;;;;;;;;5035230;28;20073;-65
2022/07/09 00:28:21;;;;;;;9.13;2.78;;;;;;;;;;5035405;28;20041;-66
2022/07/09 00:30:47;;;;;;;6.13;2.17;;;;;;;;;;5035125;28;20029;-65
2022/07/09 00:33:12;;;;;;;8.32;2.60;;;;;;;;;;5033929;28;20022;-66
2022/07/09 00:35:39;;;;;;;6.32;2.40;;;;;;;;;;5033747;28;20493;-66
2022/07/09 00:38:04;;;;;;;4.40;2.47;;;;;;;;;;5034571;28;20056;-66
2022/07/09 00:40:30;;;;;;;6.35;2.50;;;;;;;;;;5031333;28;20021;-65
2022/07/09 00:42:55;;;;;;;5.97;2.50;;;;;;;;;;5022670;28;20418;-65
2022/07/09 00:45:22;;;;;;;4.95;2.22;;;;;;;;;;5024473;28;20049;-66
2022/07/09 00:47:50;;;;;;;5.85;1.92;;;;;;;;;;5024135;28;20048;-66
2022/07/09 00:50:16;;;;;;;6.75;2.50;;;;;;;;;;5023823;28;20104;-65
2022/07/09 00:52:44;;;;;;;5.82;2.58;;;;;;;;;;5023859;28;20021;-66
2022/07/09 00:55:11;;;;;;;10.63;2.40;;;;;;;;;;5025082;28;20107;-65
2022/07/09 00:57:38;;;;;;;11.35;2.40;;;;;;;;;;5038862;28;20030;-65
2022/07/09 01:00:05;;;;;;;4.97;2.03;;;;;;;;;;5023842;28;20128;-66
2022/07/09 01:02:31;;;;;;;8.02;2.53;;;;;;;;;;5025585;28;20048;-66
2022/07/09 01:04:57;;;;;;;8.63;2.58;;;;;;;;;;5023790;28;20022;-66
2022/07/09 01:07:23;;;;;;;9.30;2.47;;;;;;;;;;5022674;28;20053;-65
2022/07/09 01:09:49;;;;;;;4.40;2.65;;;;;;;;;;5024933;28;20080;-66
2022/07/09 01:12:15;;;;;;;13.30;2.42;;;;;;;;;;5014666;28;20018;-66
2022/07/09 01:14:40;;;;;;;9.13;2.50;;;;;;;;;;5014641;28;20159;-66
2022/07/09 01:17:07;;;;;;;8.18;2.83;;;;;;;;;;5014551;28;20026;-66
2022/07/09 01:19:34;;;;;;;17.10;3.05;;;;;;;;;;5014553;28;20022;-66
2022/07/09 01:22:03;;;;;;;8.20;2.30;;;;;;;;;;5039829;28;20103;-65
2022/07/09 01:24:30;;;;;;;13.45;2.25;;;;;;;;;;5034307;28;20390;-66
2022/07/09 01:26:56;;;;;;;5.13;2.33;;;;;;;;;;5034150;28;20032;-65
2022/07/09 01:29:23;;;;;;;11.38;2.45;;;;;;;;;;5034063;28;20101;-66
2022/07/09 01:31:49;;;;;;;24.48;4.05;;;;;;;;;;5033896;28;20052;-66
2022/07/09 01:34:15;;;;;;;6.25;2.30;;;;;;;;;;5032478;28;20034;-65
2022/07/09 01:36:41;;;;;;;7.75;2.20;;;;;;;;;;5034013;28;20025;-66
2022/07/09 01:39:08;;;;;;;8.70;2.30;;;;;;;;;;5033872;28;20033;-66
2022/07/09 01:41:34;;;;;;;9.23;2.35;;;;;;;;;;5032598;28;20033;-66
2022/07/09 01:44:02;;;;;;;10.57;2.40;;;;;;;;;;5033895;28;20422;-64
2022/07/09 01:46:28;;;;;;;5.78;2.28;;;;;;;;;;5033900;28;20079;-66
2022/07/09 01:48:54;;;;;;;11.80;2.60;;;;;;;;;;5033450;28;20478;-65
2022/07/09 01:51:21;;;;;;;7.80;2.28;;;;;;;;;;5032242;28;20064;-66
2022/07/09 01:53:48;;;;;;;9.60;2.63;;;;;;;;;;5033420;28;20028;-65
2022/07/09 01:56:14;;;;;;;5.65;2.47;;;;;;;;;;5032295;28;20038;-64
2022/07/09 01:58:41;;;;;;;15.05;2.65;;;;;;;;;;5033352;28;20037;-65
2022/07/09 02:01:07;;;;;;;7.93;2.45;;;;;;;;;;5033439;28;20494;-62
2022/07/09 02:03:33;;;;;;;9.20;2.90;;;;;;;;;;5031553;28;20146;-65
2022/07/09 02:05:59;;;;;;;6.13;2.78;;;;;;;;;;5032965;28;20087;-64
2022/07/09 02:08:26;;;;;;;9.35;2.97;;;;;;;;;;5033399;28;20026;-65
2022/07/09 02:10:51;;;;;;;9.02;3.30;;;;;;;;;;5033233;28;20108;-65
2022/07/09 02:13:18;;;;;;;10.02;3.10;;;;;;;;;;5033404;28;20532;-65
2022/07/09 02:15:43;;;;;;;9.30;3.08;;;;;;;;;;5031971;28;20471;-64
2022/07/09 02:18:09;;;;;;;9.02;3.53;;;;;;;;;;5032383;28;20041;-66
2022/07/09 02:20:35;;;;;;;9.88;3.38;;;;;;;;;;5033133;28;20072;-65
2022/07/09 02:23:01;;;;;;;12.77;3.30;;;;;;;;;;5033046;28;20029;-65
2022/07/09 02:25:28;;;;;;;8.52;2.78;;;;;;;;;;5033052;28;20030;-64
2022/07/09 02:27:54;;;;;;;10.75;3.22;;;;;;;;;;5032875;28;20044;-65
2022/07/09 02:30:20;;;;;;;10.50;3.10;;;;;;;;;;5031854;28;20025;-66
2022/07/09 02:32:48;;;;;;;6.85;3.70;;;;;;;;;;5031881;28;20552;-64
2022/07/09 02:35:14;;;;;;;6.05;3.25;;;;;;;;;;5032929;28;20081;-65
2022/07/09 02:37:42;;;;;;;6.85;3.30;;;;;;;;;;5032758;28;20033;-64
2022/07/09 02:40:08;;;;;;;6.70;3.10;;;;;;;;;;5032730;28;20025;-65
2022/07/09 02:42:35;;;;;;;7.75;3.30;;;;;;;;;;5032869;28;20031;-65
2022/07/09 02:45:01;;;;;;;12.05;3.92;;;;;;;;;;5032601;28;20048;-62
2022/07/09 02:47:27;;;;;;;6.00;2.90;;;;;;;;;;5032217;28;20470;-64
2022/07/09 02:49:53;;;;;;;7.88;3.20;;;;;;;;;;5031120;28;20033;-64
2022/07/09 02:52:21;;;;;;;7.60;3.40;;;;;;;;;;5032462;28;20029;-64
2022/07/09 02:54:47;;;;;;;8.27;2.80;;;;;;;;;;5032518;28;20574;-63
2022/07/09 02:57:13;;;;;;;9.15;3.22;;;;;;;;;;5032454;28;20033;-65
2022/07/09 02:59:38;;;;;;;10.35;3.30;;;;;;;;;;5032391;28;20040;-65
2022/07/09 03:02:04;;;;;;;5.05;2.88;;;;;;;;;;5032009;28;20038;-64
2022/07/09 03:04:31;;;;;;;8.23;3.08;;;;;;;;;;5032432;28;20117;-62
2022/07/09 03:06:56;;;;;;;7.82;3.28;;;;;;;;;;5032206;28;20029;-65
2022/07/09 03:09:22;;;;;;;7.32;2.90;;;;;;;;;;5032446;28;20036;-65
2022/07/09 03:11:47;;;;;;;12.82;3.50;;;;;;;;;;5032418;28;20017;-64
2022/07/09 03:14:13;;;;;;;10.00;2.83;;;;;;;;;;5032375;28;20378;-64
2022/07/09 03:16:38;;;;;;;11.80;3.08;;;;;;;;;;5031964;28;20022;-64
2022/07/09 03:19:04;;;;;;;9.27;2.90;;;;;;;;;;5031965;28;20033;-65
2022/07/09 03:21:30;;;;;;;4.43;2.53;;;;;;;;;;5032367;28;20105;-65
2022/07/09 03:23:56;;;;;;;8.27;2.72;;;;;;;;;;5032379;28;20029;-64
2022/07/09 03:26:21;;;;;;;4.75;2.65;;;;;;;;;;5032454;28;20029;-63
2022/07/09 03:28:47;;;;;;;9.48;3.15;;;;;;;;;;5032246;28;20171;-65
2022/07/09 03:31:13;;;;;;;8.00;3.65;;;;;;;;;;5034584;28;20083;-64
2022/07/09 03:33:38;;;;;;;8.73;2.90;;;;;;;;;;5036438;28;20022;-65
2022/07/09 03:36:04;;;;;;;7.80;2.80;;;;;;;;;;5036187;28;20352;-63
2022/07/09 03:38:29;;;;;;;9.13;2.70;;;;;;;;;;5036091;28;20111;-65
2022/07/09 03:40:56;;;;;;;6.63;2.70;;;;;;;;;;5036090;28;20487;-65
2022/07/09 03:43:22;;;;;;;8.40;3.03;;;;;;;;;;5036017;28;20057;-65
2022/07/09 03:45:47;;;;;;;7.70;3.50;;;;;;;;;;5035957;28;20057;-65
2022/07/09 03:48:13;;;;;;;11.48;3.55;;;;;;;;;;5036017;28;20025;-65
2022/07/09 03:50:38;;;;;;;6.28;3.15;;;;;;;;;;5036066;28;20025;-62
2022/07/09 03:53:04;;;;;;;9.57;2.78;;;;;;;;;;5036081;28;20468;-62
2022/07/09 03:55:29;;;;;;;6.60;2.78;;;;;;;;;;5035890;28;20097;-65
2022/07/09 03:57:55;;;;;;;7.70;2.75;;;;;;;;;;5035713;28;20382;-63
2022/07/09 04:00:21;;;;;;;9.25;2.80;;;;;;;;;;5035483;28;20489;-65
2022/07/09 04:02:46;;;;;;;6.85;2.95;;;;;;;;;;5035556;28;20045;-66
2022/07/09 04:05:12;;;;;;;13.63;3.05;;;;;;;;;;5035788;28;20026;-65
2022/07/09 04:07:39;;;;;;;10.75;3.17;;;;;;;;;;5035324;28;20112;-65
2022/07/09 04:10:06;;;;;;;9.10;2.80;;;;;;;;;;5035618;28;20533;-66
2022/07/09 04:12:31;;;;;;;10.18;2.60;;;;;;;;;;5035628;28;20034;-65
2022/07/09 04:14:57;;;;;;;6.93;2.45;;;;;;;;;;5035382;28;20159;-65
2022/07/09 04:17:22;;;;;;;6.68;2.58;;;;;;;;;;5035436;28;20064;-66
2022/07/09 04:19:48;;;;;;;7.40;2.40;;;;;;;;;;5035479;28;20038;-64
2022/07/09 04:22:13;;;;;;;7.90;2.83;;;;;;;;;;5035318;28;20049;-66
2022/07/09 04:24:39;;;;;;;6.88;2.50;;;;;;;;;;5035137;28;20388;-65
2022/07/09 04:27:05;;;;;;;8.52;2.53;;;;;;;;;;5035376;28;20375;-66
2022/07/09 04:29:30;;;;;;;8.68;2.58;;;;;;;;;;5034888;28;20036;-64
2022/07/09 04:31:56;;;;;;;7.25;2.50;;;;;;;;;;5035129;28;20445;-66
2022/07/09 04:34:21;;;;;;;11.80;2.50;;;;;;;;;;5035285;28;20091;-66
2022/07/09 04:36:47;;;;;;;7.53;2.90;;;;;;;;;;5035244;28;20438;-66
2022/07/09 04:39:13;;;;;;;7.57;2.35;;;;;;;;;;5035111;28;20036;-65
2022/07/09 04:41:38;;;;;;;9.23;2.60;;;;;;;;;;5034002;28;20112;-66
2022/07/09 04:44:04;;;;;;;10.73;2.40;;;;;;;;;;5034448;28;20470;-66
2022/07/09 04:46:32;;;;;;;10.95;2.38;;;;;;;;;;5034921;28;20034;-63
2022/07/09 04:48:57;;;;;;;7.30;2.28;;;;;;;;;;5034867;28;20536;-66
2022/07/09 04:51:23;;;;;;;13.77;3.45;;;;;;;;;;5035028;28;20029;-65
2022/07/09 04:53:48;;;;;;;6.05;2.13;;;;;;;;;;5034803;28;20047;-66
2022/07/09 04:56:14;;;;;;;10.55;2.70;;;;;;;;;;5034847;28;20021;-66
2022/07/09 04:58:51;;;;;;;5.45;2.30;;;;;;;;;;5034454;28;20044;-66
2022/07/09 05:01:18;;;;;;;7.82;2.13;;;;;;;;;;5034758;28;20119;-66
2022/07/09 05:03:44;;;;;;;6.70;2.28;;;;;;;;;;5034240;28;20049;-66
2022/07/09 05:06:10;;;;;;;6.70;2.35;;;;;;;;;;5034519;28;20410;-66
2022/07/09 05:08:35;;;;;;;9.40;2.33;;;;;;;;;;5034561;28;20029;-65
2022/07/09 05:11:01;;;;;;;7.32;2.13;;;;;;;;;;5034586;28;20028;-65
2022/07/09 05:13:26;;;;;;;5.93;2.03;;;;;;;;;;5034342;28;20034;-66
2022/07/09 05:15:52;;;;;;;6.57;2.30;;;;;;;;;;5034524;28;20021;-66
2022/07/09 05:18:17;;;;;;;7.80;2.30;;;;;;;;;;5034157;28;20034;-66
2022/07/09 05:20:43;;;;;;;6.50;1.95;;;;;;;;;;5034254;28;20022;-66
2022/07/09 05:23:08;;;;;;;8.52;2.33;;;;;;;;;;5013305;28;20050;-66
2022/07/09 05:25:34;;;;;;;5.70;2.22;;;;;;;;;;5014567;28;20490;-66
2022/07/09 05:27:59;;;;;;;6.93;2.17;;;;;;;;;;5014154;28;20059;-66
2022/07/09 05:30:25;;;;;;;11.27;2.20;;;;;;;;;;5014361;28;20110;-66
2022/07/09 05:32:51;;;;;;;6.38;2.33;;;;;;;;;;5014351;28;20044;-65
2022/07/09 05:35:17;;;;;;;8.55;2.20;;;;;;;;;;5014116;28;20040;-65
2022/07/09 05:37:44;;;;;;;6.68;2.35;;;;;;;;;;5014114;28;20025;-66
2022/07/09 05:40:11;;;;;;;8.07;2.17;;;;;;;;;;5014194;28;20029;-65
2022/07/09 05:42:37;;;;;;;7.53;2.20;;;;;;;;;;5013638;28;20018;-65
2022/07/09 05:45:05;;;;;;;7.95;1.80;;;;;;;;;;5014056;28;20037;-64
2022/07/09 05:47:31;;;;;;;4.68;1.90;;;;;;;;;;5014018;28;20034;-66
2022/07/09 05:49:56;;;;;;;4.75;1.48;;;;;;;;;;5014067;28;20052;-66
2022/07/09 05:52:22;;;;;;;5.53;1.50;;;;;;;;;;5014024;28;20510;-66
2022/07/09 05:54:47;;;;;;;3.40;1.52;;;;;;;;;;5013483;28;20034;-65
2022/07/09 05:57:13;;;;;;;8.10;1.90;;;;;;;;;;5013534;28;20022;-66
2022/07/09 05:59:38;;;;;;;7.75;1.90;;;;;;;;;;5013787;28;20045;-66
2022/07/09 06:02:05;;;;;;;6.38;2.17;;;;;;;;;;5016567;28;20034;-66
2022/07/09 06:04:31;;;;;;;4.25;1.50;;;;;;;;;;5033451;28;20065;-65
2022/07/09 06:06:56;;;;;;;4.65;1.45;;;;;;;;;;5033365;28;20049;-67
2022/07/09 06:09:22;;;;;;;5.00;1.65;;;;;;;;;;5033374;28;20037;-65
2022/07/09 06:11:47;;;;;;;5.18;1.52;;;;;;;;;;5033244;28;20056;-65
2022/07/09 06:14:13;;;;;;;4.90;1.60;;;;;;;;;;5033419;28;20065;-65
2022/07/09 06:16:38;;;;;;;7.28;1.70;;;;;;;;;;5033273;28;20112;-66
2022/07/09 06:19:04;;;;;;;6.38;1.60;;;;;;;;;;5033267;28;20072;-66
2022/07/09 06:21:29;;;;;;;5.07;1.58;;;;;;;;;;5033148;28;20113;-66
2022/07/09 06:23:55;;;;;;;3.15;1.40;;;;;;;;;;5033262;28;20374;-66
2022/07/09 06:26:20;;;;;;;5.43;1.70;;;;;;;;;;5033032;28;20083;-66
2022/07/09 06:28:46;;;;;;;7.05;1.60;;;;;;;;;;5033128;28;20104;-66
2022/07/09 06:31:12;;;;;;;5.28;2.08;;;;;;;;;;5032760;28;20471;-66
2022/07/09 06:33:38;;;;;;;3.40;1.35;;;;;;;;;;5032946;28;20048;-65
2022/07/09 06:36:04;;;;;;;5.90;1.52;;;;;;;;;;5032896;28;20021;-65
2022/07/09 06:38:29;;;;;;;8.13;1.50;;;;;;;;;;5032837;28;20478;-65
2022/07/09 06:40:56;;;;;;;10.15;1.98;;;;;;;;;;5032715;28;20083;-65
2022/07/09 06:43:22;;;;;;;4.85;1.35;;;;;;;;;;5032848;28;20091;-65
2022/07/09 06:45:47;;;;;;;7.75;1.52;;;;;;;;;;5032903;28;20025;-66
2022/07/09 06:48:13;;;;;;;7.10;1.50;;;;;;;;;;5032597;28;20483;-66
2022/07/09 06:50:38;;;;;;;3.83;1.50;;;;;;;;;;5033046;28;20108;-64
2022/07/09 06:53:04;;;;;;;4.50;1.40;;;;;;;;;;5032638;28;20382;-64
2022/07/09 06:55:30;;;;;;;3.92;1.45;;;;;;;;;;5032513;28;20428;-62
2022/07/09 06:57:57;;;;;;;4.70;1.45;;;;;;;;;;5032684;28;20072;-64
2022/07/09 07:00:23;;;;;;;7.05;1.60;;;;;;;;;;5032672;28;20463;-64
2022/07/09 07:02:50;;;;;;;4.60;1.70;;;;;;;;;;5032301;28;20487;-64
2022/07/09 07:05:15;;;;;;;3.78;1.23;;;;;;;;;;5031758;28;20105;-65
2022/07/09 07:07:41;;;;;;;5.53;1.50;;;;;;;;;;5032595;28;20082;-64
2022/07/09 07:10:08;;;;;;;4.38;1.50;;;;;;;;;;5032442;28;20532;-65
2022/07/09 07:12:34;;;;;;;5.13;1.67;;;;;;;;;;5032433;28;20029;-64
2022/07/09 07:14:59;;;;;;;5.53;1.45;;;;;;;;;;5032435;28;20025;-65
2022/07/09 07:17:25;;;;;;;3.15;1.20;;;;;;;;;;5032327;28;20471;-65
2022/07/09 07:19:50;;;;;;;6.90;1.17;;;;;;;;;;5032557;28;20494;-64
2022/07/09 07:22:16;;;;;;;4.03;1.63;;;;;;;;;;5032169;28;20041;-65
2022/07/09 07:24:41;;;;;;;2.53;1.30;;;;;;;;;;5032510;28;20048;-64
2022/07/09 07:27:07;;;;;;;2.60;1.10;;;;;;;;;;5032460;28;20383;-64
2022/07/09 07:29:32;;;;;;;3.95;1.15;;;;;;;;;;5032423;28;20120;-62
2022/07/09 07:31:59;;;;;;;3.35;1.25;;;;;;;;;;5032417;28;20029;-62
2022/07/09 07:34:25;;;;;;;2.75;1.35;;;;;;;;;;5032259;28;20036;-63
2022/07/09 07:36:51;;;;;;;6.55;1.13;;;;;;;;;;5031906;28;20112;-64
2022/07/09 07:39:17;;;;;;;4.55;1.70;;;;;;;;;;5032116;28;20025;-64
2022/07/09 07:41:44;;;;;;;4.10;1.20;;;;;;;;;;5032241;28;20018;-63
2022/07/09 07:44:09;;;;;;;4.25;1.20;;;;;;;;;;5031982;28;20045;-62
2022/07/09 07:46:35;;;;;;;3.28;1.30;;;;;;;;;;5032213;28;20065;-64
2022/07/09 07:49:00;;;;;;;3.40;1.30;;;;;;;;;;5032198;28;20052;-62
2022/07/09 07:51:26;;;;;;;3.75;1.10;;;;;;;;;;5031980;28;20075;-61
2022/07/09 07:53:51;;;;;;;2.90;1.30;;;;;;;;;;5032374;28;20117;-62
2022/07/09 07:56:17;;;;;;;6.28;1.60;;;;;;;;;;5032097;28;20026;-62
2022/07/09 07:58:42;;;;;;;3.38;1.55;;;;;;;;;;5032104;28;20036;-63
2022/07/09 08:01:08;;;;;;;5.60;1.70;;;;;;;;;;5031988;28;20029;-63
2022/07/09 08:03:33;;;;;;;4.43;1.30;;;;;;;;;;5031816;28;20041;-62
2022/07/09 08:06:00;;;;;;;4.18;1.48;;;;;;;;;;5031897;28;20025;-62
2022/07/09 08:08:25;;;;;;;4.30;1.30;;;;;;;;;;5031978;28;20052;-63
2022/07/09 08:10:51;;;;;;;6.43;2.50;;;;;;;;;;5032000;28;20061;-64
2022/07/09 08:13:17;;;;;;;4.88;1.52;;;;;;;;;;5032042;28;20018;-65
2022/07/09 08:15:42;;;;;;;4.45;1.63;;;;;;;;;;5032171;28;20030;-66
2022/07/09 08:18:12;;;;;;;7.22;1.70;;;;;;;;;;5035123;28;20033;-66
2022/07/09 08:20:38;;;;;;;4.38;1.70;;;;;;;;;;5035118;28;20466;-66
2022/07/09 08:23:04;;;;;;;6.07;2.20;;;;;;;;;;5034817;28;20028;-65
2022/07/09 08:25:30;;;;;;;5.57;1.80;;;;;;;;;;5035249;28;20026;-65
2022/07/09 08:27:55;;;;;;;6.40;1.65;;;;;;;;;;5035357;28;20029;-66
2022/07/09 08:30:21;;;;;;;4.57;1.60;;;;;;;;;;5035401;28;20029;-65
2022/07/09 08:32:46;;;;;;;6.40;1.50;;;;;;;;;;5019666;28;20026;-65
2022/07/09 08:35:12;;;;;;;5.25;2.00;;;;;;;;;;5025958;28;20087;-66
2022/07/09 08:37:37;;;;;;;6.65;2.00;;;;;;;;;;5034653;28;20434;-65
2022/07/09 08:40:03;;;;;;;4.40;1.70;;;;;;;;;;5035132;28;20383;-65
2022/07/09 08:42:29;;;;;;;4.78;1.30;;;;;;;;;;5034969;28;20035;-65
2022/07/09 08:44:54;;;;;;;4.93;2.53;;;;;;;;;;5034902;28;20459;-66
2022/07/09 08:47:21;;;;;;;5.68;1.60;;;;;;;;;;5034625;28;20416;-65
2022/07/09 08:49:48;;;;;;;5.35;1.75;;;;;;;;;;5035002;28;20025;-65
2022/07/09 08:52:15;;;;;;;4.10;1.70;;;;;;;;;;5034816;28;20050;-66
2022/07/09 08:54:42;;;;;;;5.15;1.83;;;;;;;;;;5034799;28;20025;-65
2022/07/09 08:57:08;;;;;;;10.57;1.85;;;;;;;;;;5034800;28;20026;-66
2022/07/09 08:59:34;;;;;;;9.70;1.85;;;;;;;;;;5034753;28;20092;-65
2022/07/09 09:02:06;;;;;;;5.35;1.88;;;;;;;;;;5034293;28;20049;-65
2022/07/09 09:04:34;;;;;;;9.95;2.20;;;;;;;;;;5033079;28;20525;-65
2022/07/09 09:07:11;;;;;;;6.03;1.58;;;;;;;;;;5034624;28;20029;-66
2022/07/09 09:09:36;;;;;;;5.32;2.00;;;;;;;;;;5034415;28;20044;-65
2022/07/09 09:12:02;;;;;;;3.70;1.90;;;;;;;;;;5034663;28;20037;-64
2022/07/09 09:14:29;;;;;;;4.65;1.60;;;;;;;;;;5033951;28;20025;-65
2022/07/09 09:17:11;;;;;;;4.03;1.65;;;;;;;;;;5034202;28;20029;-65
2022/07/09 09:19:38;;;;;;;4.95;1.30;;;;;;;;;;5034058;28;20173;-64
2022/07/09 09:22:04;;;;;;;3.08;1.20;;;;;;;;;;5032303;28;20013;-64
2022/07/09 09:24:30;;;;;;;8.63;2.33;;;;;;;;;;5024633;28;20029;-62
2022/07/09 09:26:57;;;;;;;6.60;1.70;;;;;;;;;;5022556;28;20506;-65
2022/07/09 09:29:22;;;;;;;4.47;1.33;;;;;;;;;;5023244;28;20123;-63
2022/07/09 09:31:50;;;;;;;2.00;1.20;;;;;;;;;;5025715;28;20101;-64
2022/07/09 09:34:16;;;;;;;2.70;1.58;;;;;;;;;;5032112;28;20483;-63
2022/07/09 09:36:44;;;;;;;2.30;1.35;;;;;;;;;;5023650;28;20026;-64
2022/07/09 09:39:26;;;;;;;4.68;1.38;;;;;;;;;;5014047;28;20041;-65
2022/07/09 09:41:54;;;;;;;3.10;1.40;;;;;;;;;;5026275;28;20021;-62
2022/07/09 09:44:24;;;;;;;4.57;1.40;;;;;;;;;;5033171;28;20483;-63
2022/07/09 09:46:50;;;;;;;3.80;1.50;;;;;;;;;;5033540;28;20037;-66
2022/07/09 09:49:16;;;;;;;6.72;1.58;;;;;;;;;;5033333;28;20041;-65
2022/07/09 09:51:44;;;;;;;3.67;1.42;;;;;;;;;;5033636;28;20032;-63
2022/07/09 09:54:11;;;;;;;4.00;1.50;;;;;;;;;;5032766;28;20033;-65
2022/07/09 09:56:38;;;;;;;3.60;1.40;;;;;;;;;;5033370;28;20104;-63
2022/07/09 09:59:04;;;;;;;4.05;1.60;;;;;;;;;;5033510;28;20095;-65
2022/07/09 10:01:30;;;;;;;3.83;1.35;;;;;;;;;;5033256;28;20491;-64
2022/07/09 10:03:56;;;;;;;3.03;1.50;;;;;;;;;;5033147;28;20033;-65
2022/07/09 10:06:23;;;;;;;4.13;1.50;;;;;;;;;;5033210;28;20585;-64
2022/07/09 10:08:49;;;;;;;3.95;1.40;;;;;;;;;;5033486;28;20029;-65
2022/07/09 10:11:14;;;;;;;2.50;1.40;;;;;;;;;;5033399;28;20071;-65
2022/07/09 10:13:51;;;;;;;3.55;1.65;;;;;;;;;;5033275;28;20018;-65
2022/07/09 10:16:17;;;;;;;2.13;1.30;;;;;;;;;;5032891;28;20032;-65
2022/07/09 10:18:52;;;;;;;3.72;1.58;;;;;;;;;;5033196;28;20029;-63
2022/07/09 10:21:18;;;;;;;4.50;1.60;;;;;;;;;;5031653;28;20130;-65
2022/07/09 10:23:52;;;;;;;3.45;1.27;;;;;;;;;;5033227;28;20059;-64
2022/07/09 10:26:18;;;;;;;3.38;1.50;;;;;;;;;;5032723;28;20026;-65
2022/07/09 10:28:43;;;;;;;4.72;1.58;;;;;;;;;;5032913;28;20518;-65
2022/07/09 10:31:09;;;;;;;3.33;1.30;;;;;;;;;;5032644;28;20083;-65
2022/07/09 10:33:35;;;;;;;2.80;1.40;;;;;;;;;;5017635;28;20521;-64
2022/07/09 10:36:13;;;;;;;4.38;1.40;;;;;;;;;;5013244;28;20030;-64
2022/07/09 10:38:39;;;;;;;3.00;1.83;;;;;;;;;;5012916;28;20045;-65
2022/07/09 10:41:04;;;;;;;2.20;1.20;;;;;;;;;;5012729;28;20475;-65
2022/07/09 10:43:49;;;;;;;3.05;1.25;;;;;;;;;;5013103;28;20427;-65
2022/07/09 10:46:14;;;;;;;3.17;1.13;;;;;;;;;;5012793;28;20434;-65
2022/07/09 10:48:41;;;;;;;3.53;1.25;;;;;;;;;;5013071;28;20061;-65
2022/07/09 10:51:07;;;;;;;3.45;1.30;;;;;;;;;;5012925;28;20472;-65
2022/07/09 10:53:32;;;;;;;1.48;1.10;;;;;;;;;;5013073;28;20038;-65
2022/07/09 10:55:59;;;;;;;3.85;1.48;;;;;;;;;;5012817;28;20018;-65
2022/07/09 10:58:25;;;;;;;2.92;1.58;;;;;;;;;;5012772;28;20033;-65
2022/07/09 11:01:00;;;;;;;2.03;1.50;;;;;;;;;;5012682;28;20049;-65
2022/07/09 11:03:29;;;;;;;2.72;1.52;;;;;;;;;;5026694;28;20053;-65
2022/07/09 11:05:55;;;;;;;2.55;1.40;;;;;;;;;;5032495;28;20112;-64
2022/07/09 11:08:21;;;;;;;3.20;1.50;;;;;;;;;;5032127;28;20128;-63
2022/07/09 11:10:47;;;;;;;3.13;1.60;;;;;;;;;;5032581;28;20120;-65
2022/07/09 11:13:12;;;;;;;2.38;1.20;;;;;;;;;;5032541;28;20394;-65
2022/07/09 11:15:38;;;;;;;2.90;1.45;;;;;;;;;;5032430;28;20034;-65
2022/07/09 11:18:06;;;;;;;4.25;1.33;;;;;;;;;;5032249;28;20029;-65
2022/07/09 11:20:36;;;;;;;4.30;1.40;;;;;;;;;;5032526;28;20029;-65
2022/07/09 11:23:02;;;;;;;2.60;1.30;;;;;;;;;;5031914;28;20026;-65
2022/07/09 11:25:28;;;;;;;3.90;1.30;;;;;;;;;;5031998;28;20044;-65
2022/07/09 11:27:56;;;;;;;5.15;2.28;;;;;;;;;;5032162;28;20038;-66
2022/07/09 11:30:22;;;;;;;4.30;1.58;;;;;;;;;;5031990;28;20034;-65
2022/07/09 11:32:49;;;;;;;2.78;1.40;;;;;;;;;;5032299;28;20383;-66
2022/07/09 11:35:32;;;;;;;1.88;1.15;;;;;;;;;;5032357;28;20037;-65
2022/07/09 11:38:00;;;;;;;2.92;1.70;;;;;;;;;;5032173;28;20029;-66
2022/07/09 11:40:27;;;;;;;2.45;1.30;;;;;;;;;;5032281;28;20026;-64
2022/07/09 11:42:53;;;;;;;4.60;1.58;;;;;;;;;;5032231;28;20737;-65
2022/07/09 11:45:26;;;;;;;2.70;1.60;;;;;;;;;;5031903;28;20042;-66
2022/07/09 11:48:04;;;;;;;3.42;1.40;;;;;;;;;;5032072;28;20029;-64
2022/07/09 11:50:29;;;;;;;3.33;1.52;;;;;;;;;;5032223;28;20108;-65
2022/07/09 11:52:55;;;;;;;2.70;1.30;;;;;;;;;;5035566;28;20495;-66
2022/07/09 11:55:29;;;;;;;3.38;1.30;;;;;;;;;;5033185;28;20025;-66
2022/07/09 11:58:03;;;;;;;2.15;1.23;;;;;;;;;;5031395;28;20104;-65
2022/07/09 12:00:30;;;;;;;2.85;1.13;;;;;;;;;;5031630;28;20025;-63
2022/07/09 12:02:59;;;;;;;3.67;1.35;;;;;;;;;;5031449;28;20091;-64
2022/07/09 12:05:35;;;;;;;2.47;1.42;;;;;;;;;;5031255;28;20487;-66
2022/07/09 12:08:03;;;;;;;3.28;1.35;;;;;;;;;;5031211;28;20558;-65
2022/07/09 12:10:33;;;;;;;3.80;1.30;;;;;;;;;;5031585;28;20025;-64
2022/07/09 12:13:00;;;;;;;6.85;1.70;;;;;;;;;;5031209;28;20029;-65
2022/07/09 12:15:26;;;;;;;6.30;1.80;;;;;;;;;;5031579;28;20108;-64
2022/07/09 12:17:54;;;;;;;10.57;1.58;;;;;;;;;;5031370;28;20037;-66
2022/07/09 12:20:23;;;;;;;9.82;2.00;;;;;;;;;;5031394;28;20029;-68
2022/07/09 12:22:49;;;;;;;7.00;1.90;;;;;;;;;;5031097;28;20029;-67
2022/07/09 12:25:15;;;;;;;10.57;1.65;;;;;;;;;;5030429;28;20024;-66
2022/07/09 12:27:40;;;;;;;4.53;1.30;;;;;;;;;;5031455;28;20375;-67
2022/07/09 12:30:07;;;;;;;8.50;1.60;;;;;;;;;;5031275;28;20029;-68
2022/07/09 12:32:34;;;;;;;6.20;1.40;;;;;;;;;;5031237;28;20025;-67
2022/07/09 12:35:00;;;;;;;8.43;1.38;;;;;;;;;;5030997;28;20156;-68
2022/07/09 12:37:26;;;;;;;6.63;1.48;;;;;;;;;;5031097;28;20044;-68
2022/07/09 12:39:52;;;;;;;4.30;1.90;;;;;;;;;;5031132;28;20029;-68
2022/07/09 12:42:18;;;;;;;4.35;1.38;;;;;;;;;;5030153;28;20124;-67
2022/07/09 12:44:44;;;;;;;6.32;1.55;;;;;;;;;;5030591;28;20120;-65
2022/07/09 12:47:10;;;;;;;4.50;1.48;;;;;;;;;;5030669;28;20104;-63
2022/07/09 12:49:35;;;;;;;8.52;1.80;;;;;;;;;;5030908;28;20041;-68
2022/07/09 12:52:01;;;;;;;7.63;1.80;;;;;;;;;;5030869;28;20093;-68
2022/07/09 12:54:26;;;;;;;4.47;1.80;;;;;;;;;;5030824;28;20040;-69
2022/07/09 12:56:52;;;;;;;4.18;1.58;;;;;;;;;;5030754;28;20030;-67
2022/07/09 12:59:18;;;;;;;2.70;1.40;;;;;;;;;;5030638;28;20079;-64
2022/07/09 13:01:44;;;;;;;3.25;1.60;;;;;;;;;;5030427;28;20077;-66
2022/07/09 13:04:10;;;;;;;4.22;1.50;;;;;;;;;;5029279;28;20364;-67
2022/07/09 13:06:35;;;;;;;5.10;1.50;;;;;;;;;;5029817;28;20457;-67
2022/07/09 13:09:04;;;;;;;2.70;1.45;;;;;;;;;;5030605;28;20061;-67
2022/07/09 13:11:30;;;;;;;4.03;1.70;;;;;;;;;;5030189;28;20495;-68
2022/07/09 13:13:56;;;;;;;5.68;1.70;;;;;;;;;;5030599;28;20041;-66
2022/07/09 13:16:22;;;;;;;3.60;1.52;;;;;;;;;;5030277;28;20029;-65
2022/07/09 13:18:48;;;;;;;14.48;2.33;;;;;;;;;;5030276;28;20029;-67
2022/07/09 13:21:14;;;;;;;4.57;2.00;;;;;;;;;;5029459;28;20065;-68
2022/07/09 13:23:39;;;;;;;3.25;1.50;;;;;;;;;;5030185;28;20049;-67
2022/07/09 13:26:05;;;;;;;4.55;1.60;;;;;;;;;;5029984;28;20043;-67
2022/07/09 13:28:30;;;;;;;4.63;1.60;;;;;;;;;;5030076;28;20544;-66
2022/07/09 13:30:56;;;;;;;2.78;1.33;;;;;;;;;;5029814;28;20101;-65
2022/07/09 13:33:21;;;;;;;2.95;1.17;;;;;;;;;;5029199;28;20112;-67
2022/07/09 13:35:47;;;;;;;4.65;1.52;;;;;;;;;;5029907;28;20026;-68
2022/07/09 13:38:13;;;;;;;2.00;1.42;;;;;;;;;;5029878;28;20068;-67
2022/07/09 13:40:38;;;;;;;5.10;1.48;;;;;;;;;;5029828;28;20021;-64
2022/07/09 13:43:04;;;;;;;3.55;1.10;;;;;;;;;;5029971;28;20175;-68
2022/07/09 13:45:29;;;;;;;5.60;1.42;;;;;;;;;;5029994;28;20021;-66
2022/07/09 13:47:55;;;;;;;5.72;1.30;;;;;;;;;;5029941;28;20487;-68
2022/07/09 13:50:21;;;;;;;2.25;0.85;;;;;;;;;;5029646;28;20108;-67
2022/07/09 13:52:47;;;;;;;2.95;0.93;;;;;;;;;;5029883;28;20127;-63
2022/07/09 13:55:13;;;;;;;2.10;0.77;;;;;;;;;;5029478;28;20029;-67
2022/07/09 13:57:38;;;;;;;1.83;0.73;;;;;;;;;;5029520;28;20033;-62
2022/07/09 14:00:06;;;;;;;2.42;0.88;;;;;;;;;;5029551;28;20105;-67
2022/07/09 14:02:33;;;;;;;4.78;0.80;;;;;;;;;;5029363;28;20042;-67
2022/07/09 14:04:59;;;;;;;2.78;0.80;;;;;;;;;;5024314;28;20391;-62
2022/07/09 14:07:25;;;;;;;4.18;1.08;;;;;;;;;;5030126;28;20036;-66
2022/07/09 14:09:50;;;;;;;3.72;0.70;;;;;;;;;;5033149;28;20035;-67
2022/07/09 14:12:16;;;;;;;3.92;0.90;;;;;;;;;;5033277;28;20385;-65
2022/07/09 14:14:42;;;;;;;3.53;0.80;;;;;;;;;;5032954;28;20104;-64
2022/07/09 14:17:08;;;;;;;5.82;0.80;;;;;;;;;;5033339;28;20406;-67
2022/07/09 14:19:34;;;;;;;3.00;0.60;;;;;;;;;;5033263;28;20021;-68
2022/07/09 14:21:59;;;;;;;1.90;0.63;;;;;;;;;;5028655;28;20392;-63
2022/07/09 14:24:25;;;;;;;1.35;0.75;;;;;;;;;;5012845;28;20292;-68
2022/07/09 14:26:50;;;;;;;1.55;0.80;;;;;;;;;;5013265;28;20018;-68
2022/07/09 14:29:16;;;;;;;2.38;0.82;;;;;;;;;;5013392;28;20474;-66
2022/07/09 14:31:42;;;;;;;3.72;0.80;;;;;;;;;;5013329;28;20025;-68
2022/07/09 14:34:08;;;;;;;1.65;0.68;;;;;;;;;;5013181;28;20022;-68
2022/07/09 14:36:34;;;;;;;2.00;0.70;;;;;;;;;;5013278;28;20092;-67